Time;durP1;ratioP1;P1;durP2;ratioP2;P2;SDS_P1;SDS_P2;PMS_P1;PMS_P2;Temp;Humidity;BMP_temperature;BMP_pressure;BME280_temperature;BME280_humidity;BME280_pressure;Samples;Min_cycle;Max_cycle;Signal;HPM_P1;HPM_P2
2021/09/26 00:00:51;;;;;;;28.65;18.73;;;;;;;12.39;100.00;101005.47;4941191;28;20191;-81
2021/09/26 00:03:16;;;;;;;30.27;20.13;;;;;;;12.39;100.00;101004.63;4925464;29;20058;-82
2021/09/26 00:05:42;;;;;;;29.02;19.42;;;;;;;12.38;100.00;101003.81;4926950;29;20088;-85
2021/09/26 00:08:07;;;;;;;30.65;20.05;;;;;;;12.33;100.00;101005.31;4921893;29;20058;-85
2021/09/26 00:10:33;;;;;;;28.75;19.52;;;;;;;12.31;100.00;101010.03;4945914;28;20083;-82
2021/09/26 00:12:59;;;;;;;27.95;19.70;;;;;;;12.30;100.00;101002.97;4928709;28;20506;-81
2021/09/26 00:15:25;;;;;;;30.70;20.30;;;;;;;12.26;100.00;101002.47;4924823;28;20051;-82
2021/09/26 00:17:51;;;;;;;29.45;19.95;;;;;;;12.26;100.00;101001.66;4925651;28;20402;-84
2021/09/26 00:20:18;;;;;;;32.20;21.20;;;;;;;12.26;100.00;100999.78;4933189;28;20055;-81
2021/09/26 00:22:43;;;;;;;32.45;22.67;;;;;;;12.26;100.00;101001.66;4934038;28;20055;-81
2021/09/26 00:25:11;;;;;;;37.40;22.23;;;;;;;12.26;100.00;100999.78;4941560;28;20040;-83
2021/09/26 00:27:36;;;;;;;32.50;21.92;;;;;;;12.29;100.00;101001.31;4934161;28;20402;-80
2021/09/26 00:30:04;;;;;;;35.05;23.10;;;;;;;12.29;100.00;100999.44;4922830;29;20048;-85
2021/09/26 00:32:29;;;;;;;35.22;23.17;;;;;;;12.32;100.00;100991.03;4929558;28;20112;-81
2021/09/26 00:34:55;;;;;;;34.75;22.40;;;;;;;12.30;100.00;100989.53;4913846;28;20059;-84
2021/09/26 00:37:20;;;;;;;41.63;24.17;;;;;;;12.30;100.00;100993.03;4941378;28;20126;-81
2021/09/26 00:39:46;;;;;;;37.58;22.08;;;;;;;12.31;100.00;100989.34;4933477;28;20051;-81
2021/09/26 00:42:11;;;;;;;36.22;23.10;;;;;;;12.38;100.00;100981.44;4932832;28;20196;-86
2021/09/26 00:44:37;;;;;;;37.75;23.80;;;;;;;12.38;100.00;100984.97;4932112;28;20376;-81
2021/09/26 00:47:02;;;;;;;41.25;25.45;;;;;;;12.45;100.00;100982.41;4940360;28;20047;-81
2021/09/26 00:49:28;;;;;;;41.63;26.80;;;;;;;12.51;100.00;100975.50;4936281;28;20063;-81
2021/09/26 00:51:53;;;;;;;37.22;24.33;;;;;;;12.57;100.00;100969.44;4944812;28;20050;-85
2021/09/26 00:54:19;;;;;;;38.22;26.33;;;;;;;12.60;100.00;100974.47;4944619;28;20058;-85
2021/09/26 00:56:47;;;;;;;36.75;23.33;;;;;;;12.52;100.00;100972.66;4942386;28;20054;-82
2021/09/26 00:59:16;;;;;;;34.20;23.80;;;;;;;12.56;100.00;100971.28;4943517;28;20069;-81
2021/09/26 01:01:41;;;;;;;41.72;26.08;;;;;;;12.56;100.00;100973.16;4919808;29;20040;-81
2021/09/26 01:04:07;;;;;;;36.60;24.38;;;;;;;12.54;100.00;100965.22;4933171;28;20062;-81
2021/09/26 01:06:40;;;;;;;36.92;23.02;;;;;;;12.57;100.00;100973.00;4942402;28;20414;-84
2021/09/26 01:09:27;;;;;;;38.95;24.67;;;;;;;12.52;100.00;100969.97;4943402;28;20051;-81
2021/09/26 01:12:20;;;;;;;37.40;24.15;;;;;;;12.49;100.00;100964.94;4936550;28;20072;-82
2021/09/26 01:15:15;;;;;;;41.78;26.20;;;;;;;12.48;100.00;100959.72;4904032;29;20147;-82
2021/09/26 01:17:43;;;;;;;37.97;23.73;;;;;;;12.44;100.00;100964.59;4936387;28;20047;-86
2021/09/26 01:20:52;;;;;;;39.38;25.05;;;;;;;12.42;100.00;100969.31;4934975;28;20043;-82
2021/09/26 01:23:20;;;;;;;43.08;25.38;;;;;;;12.46;100.00;100965.28;4926326;28;20066;-81
2021/09/26 01:26:21;;;;;;;46.22;25.83;;;;;;;12.50;100.00;100968.47;4936236;28;20449;-81
2021/09/26 01:29:36;;;;;;;38.97;23.60;;;;;;;12.53;100.00;100960.03;4919403;29;20059;-81
2021/09/26 01:32:06;;;;;;;43.25;26.83;;;;;;;12.56;100.00;100967.75;4947540;28;20113;-81
2021/09/26 01:34:47;;;;;;;40.58;25.15;;;;;;;12.51;100.00;100959.34;4943064;28;20049;-82
2021/09/26 01:37:15;;;;;;;37.58;25.02;;;;;;;12.52;100.00;100952.97;4943994;28;20529;-83
2021/09/26 01:39:52;;;;;;;41.72;25.42;;;;;;;12.60;100.00;100952.94;4943295;28;20062;-84
2021/09/26 01:42:33;;;;;;;40.72;25.45;;;;;;;12.62;100.00;100957.13;4943000;28;20816;-81
2021/09/26 01:45:43;;;;;;;41.35;25.05;;;;;;;12.67;100.00;100961.19;4945072;28;20128;-81
2021/09/26 01:48:11;;;;;;;43.65;26.42;;;;;;;12.67;100.00;100956.63;4909100;28;20047;-81
2021/09/26 01:50:38;;;;;;;41.90;25.53;;;;;;;12.72;100.00;100951.56;4945745;28;20165;-82
2021/09/26 01:53:06;;;;;;;47.03;28.55;;;;;;;12.76;100.00;100950.19;4950220;28;20090;-81
2021/09/26 01:55:33;;;;;;;44.50;27.02;;;;;;;12.77;100.00;100942.94;4945766;28;20525;-82
2021/09/26 01:58:01;;;;;;;43.78;27.23;;;;;;;12.83;100.00;100953.00;4945472;28;20631;-82
2021/09/26 02:00:26;;;;;;;47.33;27.23;;;;;;;12.85;100.00;100959.06;4946409;28;20050;-80
2021/09/26 02:02:52;;;;;;;41.92;27.25;;;;;;;12.88;100.00;100956.03;4946922;28;20055;-85
2021/09/26 02:05:18;;;;;;;43.15;25.80;;;;;;;12.86;100.00;100953.53;4946527;28;20054;-81
2021/09/26 02:07:47;;;;;;;40.67;25.50;;;;;;;12.86;100.00;100944.59;4948897;28;20047;-82
2021/09/26 02:10:16;;;;;;;42.15;28.17;;;;;;;12.86;100.00;100945.44;4944329;28;20055;-81
2021/09/26 02:12:42;;;;;;;43.75;27.65;;;;;;;12.93;100.00;100952.81;4945567;28;20541;-81
2021/09/26 02:15:12;;;;;;;44.67;26.80;;;;;;;12.94;100.00;100949.09;4946829;28;20138;-87
2021/09/26 02:17:38;;;;;;;43.10;26.67;;;;;;;12.92;100.00;100948.41;4935562;28;20114;-85
2021/09/26 02:20:05;;;;;;;40.45;24.67;;;;;;;12.82;100.00;100952.19;4943252;28;20130;-81
2021/09/26 02:22:34;;;;;;;39.13;25.70;;;;;;;12.80;100.00;100947.97;4937589;28;20082;-81
2021/09/26 02:25:03;;;;;;;44.22;24.63;;;;;;;12.72;100.00;100943.47;4937710;28;20058;-86
2021/09/26 02:27:30;;;;;;;45.93;26.37;;;;;;;12.70;100.00;100945.50;4937210;28;20059;-81
2021/09/26 02:29:55;;;;;;;45.58;26.73;;;;;;;12.70;100.00;100941.97;4936724;28;20060;-81
2021/09/26 02:32:21;;;;;;;41.65;26.48;;;;;;;12.69;100.00;100941.13;4932427;28;20055;-81
2021/09/26 02:34:47;;;;;;;46.88;27.42;;;;;;;12.71;100.00;100941.78;4928123;28;20055;-82
2021/09/26 02:37:12;;;;;;;42.28;26.23;;;;;;;12.63;100.00;100937.28;4926105;28;20158;-85
2021/09/26 02:39:38;;;;;;;43.67;26.08;;;;;;;12.64;100.00;100938.13;4929586;28;20525;-82
2021/09/26 02:42:07;;;;;;;42.47;24.20;;;;;;;12.59;100.00;100945.88;4940180;28;20149;-85
2021/09/26 02:44:38;;;;;;;;;;;;;;;12.51;100.00;100944.03;4931401;28;20055;-82
2021/09/26 02:47:18;;;;;;;42.72;25.92;;;;;;;12.36;100.00;100948.47;4938990;28;19922;-81
2021/09/26 02:49:44;;;;;;;49.60;26.50;;;;;;;12.34;100.00;100945.97;4914918;29;20056;-80
2021/09/26 02:52:11;;;;;;;41.33;25.63;;;;;;;12.33;100.00;100941.56;4935104;28;20039;-81
2021/09/26 02:54:40;;;;;;;50.17;30.33;;;;;;;12.37;100.00;100948.31;4936447;28;20134;-83
2021/09/26 02:57:08;;;;;;;45.15;26.05;;;;;;;12.32;100.00;100939.06;4934883;28;20123;-83
2021/09/26 02:59:33;;;;;;;44.63;26.63;;;;;;;12.29;100.00;100937.56;4933190;28;20064;-86
2021/09/26 03:01:59;;;;;;;44.60;26.17;;;;;;;12.27;100.00;100934.19;4934113;28;20047;-83
2021/09/26 03:04:25;;;;;;;46.40;27.55;;;;;;;12.32;100.00;100944.47;4942531;28;20051;-81
2021/09/26 03:06:50;;;;;;;55.05;30.27;;;;;;;12.34;100.00;100940.59;4938197;28;20448;-81
2021/09/26 03:09:16;;;;;;;47.70;29.08;;;;;;;12.42;100.00;100943.22;4943900;28;20414;-82
2021/09/26 03:11:42;;;;;;;46.75;28.58;;;;;;;12.49;100.00;100946.09;4944005;28;20398;-85
2021/09/26 03:14:07;;;;;;;50.15;28.77;;;;;;;12.47;100.00;100941.88;4945536;28;20770;-82
2021/09/26 03:16:33;;;;;;;44.53;26.15;;;;;;;12.48;100.00;100940.88;4944977;28;20054;-81
2021/09/26 03:18:58;;;;;;;44.90;26.92;;;;;;;12.44;100.00;100934.16;4945589;28;20516;-82
2021/09/26 03:21:27;;;;;;;41.67;26.70;;;;;;;12.39;100.00;100930.13;4943538;28;20518;-81
2021/09/26 03:23:52;;;;;;;44.78;26.38;;;;;;;12.32;100.00;100929.16;4940518;28;20079;-85
2021/09/26 03:26:18;;;;;;;47.13;29.23;;;;;;;12.35;100.00;100928.78;4945254;28;20253;-83
2021/09/26 03:28:43;;;;;;;48.92;26.88;;;;;;;12.31;100.00;100932.81;4938992;28;20517;-82
2021/09/26 03:31:09;;;;;;;55.10;31.42;;;;;;;12.35;100.00;100927.97;4938964;28;20043;-82
2021/09/26 03:33:34;;;;;;;44.63;27.30;;;;;;;12.32;100.00;100922.94;4937927;28;20055;-81
2021/09/26 03:35:59;;;;;;;49.85;29.67;;;;;;;12.36;100.00;100924.25;4937320;28;20051;-84
2021/09/26 03:38:25;;;;;;;47.22;28.60;;;;;;;12.37;100.00;100916.03;4911671;28;20530;-82
2021/09/26 03:40:50;;;;;;;50.33;29.80;;;;;;;12.42;100.00;100924.38;4944474;28;20058;-81
2021/09/26 03:43:16;;;;;;;47.72;29.30;;;;;;;12.42;100.00;100923.56;4937348;28;20044;-84
2021/09/26 03:45:42;;;;;;;47.08;28.30;;;;;;;12.43;100.00;100914.50;4937459;28;20388;-82
2021/09/26 03:48:08;;;;;;;51.00;29.60;;;;;;;12.46;100.00;100921.34;4944243;28;20098;-87
2021/09/26 03:50:34;;;;;;;46.05;28.23;;;;;;;12.53;100.00;100919.66;4943066;28;20079;-82
2021/09/26 03:52:59;;;;;;;42.08;27.13;;;;;;;12.48;100.00;100916.63;4944788;28;20051;-82
2021/09/26 03:55:25;;;;;;;43.17;28.25;;;;;;;12.49;100.00;100912.97;4939047;28;20047;-82
2021/09/26 03:57:50;;;;;;;46.33;28.02;;;;;;;12.53;100.00;100909.72;4939855;28;20070;-83
2021/09/26 04:00:19;;;;;;;47.65;28.35;;;;;;;12.57;100.00;100904.81;4944025;28;20407;-86
2021/09/26 04:02:45;;;;;;;39.72;25.65;;;;;;;12.53;100.00;100909.72;4945649;28;20278;-83
2021/09/26 04:05:10;;;;;;;37.28;24.88;;;;;;;12.50;100.00;100909.25;4945793;28;20569;-82
2021/09/26 04:07:36;;;;;;;37.83;23.90;;;;;;;12.45;100.00;100907.06;4943829;28;20387;-82
2021/09/26 04:10:06;;;;;;;42.42;25.50;;;;;;;12.36;100.00;100914.31;4920732;29;20454;-83
2021/09/26 04:12:31;;;;;;;40.50;25.50;;;;;;;12.40;100.00;100904.91;4921802;28;20039;-82
2021/09/26 04:14:56;;;;;;;39.10;26.67;;;;;;;12.42;100.00;100904.72;4926178;28;20109;-84
2021/09/26 04:17:22;;;;;;;44.42;26.95;;;;;;;12.41;100.00;100914.66;4930956;28;20191;-81
2021/09/26 04:19:47;;;;;;;47.30;28.05;;;;;;;12.40;100.00;100921.06;4925468;28;20052;-81
2021/09/26 04:22:12;;;;;;;41.78;25.63;;;;;;;12.44;100.00;100920.72;4925070;28;20057;-82
2021/09/26 04:24:38;;;;;;;41.88;27.63;;;;;;;12.48;100.00;100917.47;4922631;29;20051;-81
2021/09/26 04:27:04;;;;;;;42.20;26.80;;;;;;;12.40;100.00;100912.97;4924394;28;20168;-82
2021/09/26 04:29:29;;;;;;;43.15;27.70;;;;;;;12.40;100.00;100907.59;4926180;28;20051;-82
2021/09/26 04:31:55;;;;;;;42.17;26.92;;;;;;;12.39;100.00;100902.38;4924722;28;20525;-81
2021/09/26 04:34:25;;;;;;;43.35;27.90;;;;;;;12.39;100.00;100900.50;4924890;29;20522;-83
2021/09/26 04:36:51;;;;;;;42.03;27.35;;;;;;;12.41;100.00;100898.50;4924133;28;20047;-82
2021/09/26 04:39:16;;;;;;;43.72;28.38;;;;;;;12.42;100.00;100902.84;4925026;28;20078;-81
2021/09/26 04:41:41;;;;;;;42.47;28.00;;;;;;;12.45;100.00;100911.59;4924693;28;20483;-84
2021/09/26 04:44:07;;;;;;;37.65;26.23;;;;;;;12.41;100.00;100905.75;4925179;28;20446;-81
2021/09/26 04:46:32;;;;;;;42.67;27.50;;;;;;;12.40;100.00;100904.91;4926061;28;20384;-81
2021/09/26 04:48:58;;;;;;;43.33;28.13;;;;;;;12.38;100.00;100912.31;4914543;29;20079;-84
2021/09/26 04:51:23;;;;;;;44.13;27.73;;;;;;;12.37;100.00;100915.16;4941144;28;20044;-81
2021/09/26 04:53:49;;;;;;;44.47;26.90;;;;;;;12.36;100.00;100910.78;4932952;28;20060;-81
2021/09/26 04:56:14;;;;;;;47.70;27.70;;;;;;;12.35;100.00;100911.81;4934768;28;20059;-82
2021/09/26 04:58:39;;;;;;;41.97;26.40;;;;;;;12.36;100.00;100906.25;4935869;28;20395;-81
2021/09/26 05:01:05;;;;;;;43.88;28.70;;;;;;;12.39;100.00;100913.13;4928609;28;20102;-84
2021/09/26 05:03:30;;;;;;;39.35;26.25;;;;;;;12.37;100.00;100913.31;4924276;29;20047;-80
2021/09/26 05:05:56;;;;;;;44.92;26.90;;;;;;;12.33;100.00;100909.28;4924461;28;20055;-81
2021/09/26 05:08:21;;;;;;;43.25;26.45;;;;;;;12.36;100.00;100908.09;4924045;28;20744;-81
2021/09/26 05:10:46;;;;;;;42.88;26.55;;;;;;;12.37;100.00;100907.06;4924921;29;20055;-82
2021/09/26 05:13:12;;;;;;;44.00;26.63;;;;;;;12.36;100.00;100913.47;4925791;29;20478;-81
2021/09/26 05:15:38;;;;;;;40.08;25.45;;;;;;;12.35;100.00;100912.66;4925274;29;20075;-82
2021/09/26 05:18:03;;;;;;;42.95;26.65;;;;;;;12.34;100.00;100910.97;4929708;28;20102;-81
2021/09/26 05:20:29;;;;;;;42.88;25.90;;;;;;;12.36;100.00;100914.31;4924411;29;20054;-83
2021/09/26 05:22:54;;;;;;;41.70;25.92;;;;;;;12.34;100.00;100916.38;4924930;28;20122;-81
2021/09/26 05:25:19;;;;;;;46.25;26.88;;;;;;;12.37;100.00;100921.41;4922790;29;20067;-84
2021/09/26 05:27:45;;;;;;;44.58;26.50;;;;;;;12.40;100.00;100914.84;4924717;29;20253;-82
2021/09/26 05:30:13;;;;;;;42.75;26.25;;;;;;;12.39;100.00;100924.75;4924103;29;20503;-82
2021/09/26 05:32:39;;;;;;;41.65;27.00;;;;;;;12.43;100.00;100925.25;4939361;28;20079;-83
2021/09/26 05:35:06;;;;;;;45.83;27.15;;;;;;;12.44;100.00;100913.47;4934789;28;20134;-81
2021/09/26 05:37:31;;;;;;;45.20;27.90;;;;;;;12.44;100.00;100904.56;4939510;28;20047;-82
2021/09/26 05:39:57;;;;;;;46.63;28.85;;;;;;;12.44;100.00;100912.63;4937416;28;20102;-84
2021/09/26 05:42:23;;;;;;;45.72;28.40;;;;;;;12.49;100.00;100913.78;4938114;28;20407;-81
2021/09/26 05:44:48;;;;;;;47.58;29.00;;;;;;;12.52;100.00;100910.75;4931876;28;20571;-82
2021/09/26 05:47:14;;;;;;;42.53;27.17;;;;;;;12.59;100.00;100902.81;4935460;28;20052;-83
2021/09/26 05:49:41;;;;;;;46.42;29.75;;;;;;;12.62;100.00;100902.47;4937645;28;20044;-82
2021/09/26 05:52:08;;;;;;;45.60;28.90;;;;;;;12.66;100.00;100901.09;4935624;28;20055;-81
2021/09/26 05:54:38;;;;;;;45.67;30.23;;;;;;;12.71;100.00;100912.16;4943658;28;20062;-84
2021/09/26 05:57:04;;;;;;;49.65;28.27;;;;;;;12.77;100.00;100902.53;4943131;28;20055;-82
2021/09/26 05:59:31;;;;;;;45.33;30.17;;;;;;;12.84;100.00;100901.69;4941974;28;20050;-85
2021/09/26 06:01:57;;;;;;;47.80;29.33;;;;;;;12.89;100.00;100911.94;4942358;28;20525;-82
2021/09/26 06:04:22;;;;;;;51.55;31.75;;;;;;;12.95;100.00;100908.53;4955211;28;20039;-82
2021/09/26 06:06:47;;;;;;;47.83;28.15;;;;;;;13.03;100.00;100910.31;4935621;28;20063;-82
2021/09/26 06:09:13;;;;;;;50.67;30.77;;;;;;;13.05;100.00;100901.03;4934388;28;20214;-82
2021/09/26 06:11:38;;;;;;;44.58;29.80;;;;;;;13.12;100.00;100906.59;4950592;28;20517;-83
2021/09/26 06:14:03;;;;;;;47.25;30.23;;;;;;;13.17;100.00;100906.88;4933462;28;20459;-83
2021/09/26 06:16:29;;;;;;;44.55;29.00;;;;;;;13.23;100.00;100913.41;4950487;28;20105;-82
2021/09/26 06:18:54;;;;;;;50.92;30.48;;;;;;;13.30;100.00;100917.09;4957599;28;20048;-82
2021/09/26 06:21:19;;;;;;;44.47;29.52;;;;;;;13.36;100.00;100915.56;4947953;28;20050;-82
2021/09/26 06:23:45;;;;;;;45.83;29.27;;;;;;;13.40;100.00;100922.25;4942227;28;20103;-82
2021/09/26 06:26:11;;;;;;;49.47;29.33;;;;;;;13.47;100.00;100920.53;4936132;28;20569;-85
2021/09/26 06:28:36;;;;;;;45.72;27.58;;;;;;;13.52;100.00;100918.09;4939876;28;20090;-84
2021/09/26 06:31:01;;;;;;;43.80;27.23;;;;;;;13.56;100.00;100924.81;4942962;28;20043;-82
2021/09/26 06:33:27;;;;;;;42.13;27.55;;;;;;;13.62;100.00;100920.56;4950184;28;20036;-82
2021/09/26 06:35:53;;;;;;;40.80;26.33;;;;;;;13.69;100.00;100919.63;4935971;28;20387;-84
2021/09/26 06:38:19;;;;;;;42.50;27.73;;;;;;;13.77;100.00;100919.56;4943831;28;20450;-84
2021/09/26 06:40:44;;;;;;;42.97;28.50;;;;;;;13.82;100.00;100919.03;4935729;28;20130;-82
2021/09/26 06:43:12;;;;;;;40.38;26.92;;;;;;;13.90;100.00;100912.75;4950791;28;20079;-82
2021/09/26 06:45:38;;;;;;;40.17;28.17;;;;;;;13.97;100.00;100924.47;4945744;28;20044;-82
2021/09/26 06:48:03;;;;;;;37.97;26.88;;;;;;;14.05;100.00;100921.69;4949572;28;20060;-83
2021/09/26 06:50:29;;;;;;;41.60;27.40;;;;;;;14.10;100.00;100919.28;4955476;28;20414;-85
2021/09/26 06:52:54;;;;;;;41.15;27.00;;;;;;;14.15;100.00;100924.13;4950997;28;20920;-82
2021/09/26 06:55:19;;;;;;;37.28;25.25;;;;;;;14.21;100.00;100932.34;4949602;28;20066;-83
2021/09/26 06:57:45;;;;;;;35.05;25.33;;;;;;;14.28;100.00;100937.81;4952913;28;20059;-82
2021/09/26 07:00:11;;;;;;;34.53;23.25;;;;;;;14.35;100.00;100936.03;4963280;28;20159;-82
2021/09/26 07:02:36;;;;;;;38.90;26.67;;;;;;;14.40;100.00;100930.94;4962481;28;20058;-84
2021/09/26 07:05:02;;;;;;;35.83;24.40;;;;;;;14.44;100.00;100936.78;4953920;28;20054;-83
2021/09/26 07:07:27;;;;;;;33.33;24.02;;;;;;;14.52;100.00;100939.44;4961821;28;20059;-82
2021/09/26 07:09:53;;;;;;;31.23;21.63;;;;;;;14.56;100.00;100946.16;4959458;28;20051;-83
2021/09/26 07:12:19;;;;;;;28.83;20.95;;;;;;;14.62;100.00;100933.78;4947460;28;20130;-82
2021/09/26 07:14:45;;;;;;;29.73;21.83;;;;;;;14.69;100.00;100952.75;4952586;28;20482;-84
2021/09/26 07:17:11;;;;;;;30.08;21.05;;;;;;;14.75;100.00;100952.00;4946591;28;20509;-83
2021/09/26 07:19:37;;;;;;;28.70;20.75;;;;;;;14.78;100.00;100946.22;4945983;28;20059;-82
2021/09/26 07:22:03;;;;;;;28.30;20.75;;;;;;;14.85;100.00;100948.00;4938551;28;20529;-85
2021/09/26 07:24:29;;;;;;;27.10;20.40;;;;;;;14.93;100.00;100954.28;4946457;28;20047;-82
2021/09/26 07:26:54;;;;;;;25.80;19.25;;;;;;;14.98;100.00;100955.41;4941684;28;20060;-83
2021/09/26 07:29:19;;;;;;;25.95;19.42;;;;;;;15.02;100.00;100962.13;4938998;28;20126;-83
2021/09/26 07:31:46;;;;;;;25.73;19.10;;;;;;;15.08;100.00;100961.38;4939001;28;20047;-83
2021/09/26 07:34:11;;;;;;;27.25;20.15;;;;;;;15.15;100.00;100953.31;4942893;28;20051;-82
2021/09/26 07:36:37;;;;;;;25.00;18.90;;;;;;;15.21;100.00;100955.25;4937633;28;20051;-85
2021/09/26 07:39:04;;;;;;;26.17;19.10;;;;;;;15.27;100.00;100964.47;4939907;28;20271;-83
2021/09/26 07:41:29;;;;;;;25.65;18.45;;;;;;;15.33;100.00;100969.13;4936348;28;20498;-82
2021/09/26 07:43:55;;;;;;;24.83;18.80;;;;;;;15.38;100.00;100966.69;4941735;28;20047;-84
2021/09/26 07:46:20;;;;;;;24.00;17.83;;;;;;;15.43;100.00;100974.22;4950371;28;20054;-84
2021/09/26 07:48:46;;;;;;;23.67;17.50;;;;;;;15.48;100.00;100975.34;4950828;28;20976;-83
2021/09/26 07:51:11;;;;;;;24.80;18.20;;;;;;;15.58;100.00;100961.47;4945250;28;20086;-83
2021/09/26 07:53:36;;;;;;;23.25;17.67;;;;;;;15.63;100.00;100974.44;4944362;28;20418;-86
2021/09/26 07:56:03;;;;;;;23.08;17.58;;;;;;;15.69;100.00;100973.69;4946249;28;20039;-83
2021/09/26 07:58:29;;;;;;;24.50;17.30;;;;;;;15.75;100.00;100984.56;4944270;28;20055;-83
2021/09/26 08:00:55;;;;;;;24.88;16.98;;;;;;;15.82;100.00;100978.38;4945552;28;20058;-83
2021/09/26 08:03:20;;;;;;;21.65;17.33;;;;;;;15.87;100.00;100987.59;4946551;28;20055;-83
2021/09/26 08:05:46;;;;;;;20.55;16.20;;;;;;;15.91;100.00;100983.47;4942299;28;20067;-87
2021/09/26 08:08:11;;;;;;;23.15;18.35;;;;;;;15.98;100.00;100984.38;4934751;28;20102;-83
2021/09/26 08:10:37;;;;;;;24.85;17.65;;;;;;;16.05;100.00;100984.41;4942182;28;20632;-86
2021/09/26 08:13:03;;;;;;;21.05;16.40;;;;;;;16.07;100.00;100974.22;4956686;28;20051;-83
2021/09/26 08:15:28;;;;;;;22.10;17.08;;;;;;;16.12;100.00;100970.94;4925994;28;20126;-84
2021/09/26 08:17:54;;;;;;;23.02;17.30;;;;;;;16.18;100.00;100975.56;4923663;28;20094;-87
2021/09/26 08:20:19;;;;;;;21.05;16.83;;;;;;;16.23;100.00;100975.81;4932823;28;20509;-84
2021/09/26 08:22:45;;;;;;;20.95;17.15;;;;;;;16.25;100.00;100979.16;4934969;28;20102;-83
2021/09/26 08:25:13;;;;;;;21.05;16.63;;;;;;;16.33;100.00;100980.88;4942095;28;20082;-83
2021/09/26 08:27:39;;;;;;;24.20;18.10;;;;;;;16.36;100.00;100975.06;4949884;28;20086;-83
2021/09/26 08:30:08;;;;;;;23.75;16.88;;;;;;;16.41;100.00;100978.88;4944876;28;20050;-84
2021/09/26 08:32:34;;;;;;;24.17;18.33;;;;;;;16.51;100.00;100972.25;4944283;28;20043;-84
2021/09/26 08:35:00;;;;;;;24.98;18.30;;;;;;;16.59;100.00;100970.22;4945091;28;20182;-84
2021/09/26 08:37:25;;;;;;;23.88;17.20;;;;;;;16.65;100.00;100957.75;4943699;28;20077;-83
2021/09/26 08:39:50;;;;;;;24.70;17.25;;;;;;;16.71;100.00;100970.50;4925836;29;20162;-85
2021/09/26 08:42:16;;;;;;;23.60;16.88;;;;;;;16.79;100.00;100970.34;4924368;29;20066;-83
2021/09/26 08:44:42;;;;;;;22.77;17.35;;;;;;;16.86;100.00;100965.81;4941432;28;20142;-84
2021/09/26 08:47:07;;;;;;;20.50;15.75;;;;;;;16.97;100.00;100968.97;4943165;28;20324;-83
2021/09/26 08:49:34;;;;;;;21.92;17.73;;;;;;;17.05;100.00;100972.34;4935773;28;20055;-83
2021/09/26 08:52:00;;;;;;;24.48;16.15;;;;;;;17.11;100.00;100965.28;4919318;28;20043;-86
2021/09/26 08:54:25;;;;;;;20.63;15.25;;;;;;;17.17;100.00;100961.75;4925855;28;20530;-84
2021/09/26 08:56:51;;;;;;;20.30;16.42;;;;;;;17.29;100.00;100970.13;4924112;28;20047;-84
2021/09/26 08:59:16;;;;;;;19.58;15.90;;;;;;;17.42;100.00;100974.78;4934833;28;20048;-85
2021/09/26 09:01:41;;;;;;;18.48;13.43;;;;;;;17.55;100.00;100963.94;4945362;28;20625;-84
2021/09/26 09:04:07;;;;;;;20.55;14.32;;;;;;;17.67;100.00;100975.03;4941206;28;20047;-84
2021/09/26 09:06:38;;;;;;;17.98;13.80;;;;;;;17.83;100.00;100969.22;4938791;28;20130;-85
2021/09/26 09:09:09;;;;;;;18.90;14.07;;;;;;;17.96;100.00;100966.53;4942109;28;20057;-84
2021/09/26 09:11:34;;;;;;;20.38;14.00;;;;;;;18.14;100.00;100968.59;4939360;28;20054;-87
2021/09/26 09:14:00;;;;;;;18.05;13.75;;;;;;;18.25;99.40;100978.84;4937819;28;20050;-83
2021/09/26 09:16:32;;;;;;;17.52;13.68;;;;;;;18.41;99.55;100980.31;4944466;28;20054;-84
2021/09/26 09:18:58;;;;;;;18.05;13.52;;;;;;;18.55;98.29;100983.81;4942641;28;20502;-85
2021/09/26 09:21:29;;;;;;;17.17;11.88;;;;;;;18.64;97.18;100990.72;4946367;28;20071;-84
2021/09/26 09:24:24;;;;;;;16.35;12.15;;;;;;;18.69;98.41;100987.34;4942798;28;20051;-84
2021/09/26 09:26:51;;;;;;;16.30;12.20;;;;;;;18.88;98.58;100986.47;4946885;28;20106;-84
2021/09/26 09:29:18;;;;;;;16.90;11.80;;;;;;;19.04;97.12;100987.88;4938031;28;20283;-84
2021/09/26 09:31:55;;;;;;;15.63;10.65;;;;;;;19.19;97.24;100989.47;4937918;28;20039;-84
2021/09/26 09:34:37;;;;;;;14.70;10.70;;;;;;;19.34;96.82;100992.78;4938842;29;20043;-84
2021/09/26 09:37:23;;;;;;;15.32;11.35;;;;;;;19.47;95.75;100995.41;4939502;28;20055;-85
2021/09/26 09:40:11;;;;;;;14.90;11.25;;;;;;;19.58;96.31;100986.56;4944167;28;20126;-83
2021/09/26 09:42:42;;;;;;;15.07;11.32;;;;;;;19.68;95.78;100990.72;4943906;28;20513;-84
2021/09/26 09:45:17;;;;;;;17.30;11.50;;;;;;;19.75;95.55;100983.34;4942356;28;20451;-87
2021/09/26 09:48:01;;;;;;;17.75;10.98;;;;;;;19.83;94.61;100999.41;4946686;28;20060;-84
2021/09/26 09:50:45;;;;;;;14.88;11.13;;;;;;;19.89;94.20;100995.81;4931282;28;20056;-84
2021/09/26 09:53:47;;;;;;;15.30;10.85;;;;;;;19.84;93.88;100991.00;4937129;28;20490;-85
2021/09/26 09:56:13;;;;;;;13.50;10.65;;;;;;;19.89;95.11;101003.16;4941451;28;20103;-84
2021/09/26 09:58:45;;;;;;;14.90;11.65;;;;;;;19.87;94.03;100999.81;4941011;28;20070;-84
2021/09/26 10:01:15;;;;;;;14.88;10.60;;;;;;;19.88;94.30;100996.00;4908521;29;20139;-84
2021/09/26 10:03:51;;;;;;;14.73;11.77;;;;;;;19.88;94.48;100996.88;4913468;28;20047;-87
2021/09/26 10:06:21;;;;;;;14.80;11.60;;;;;;;19.88;94.05;100994.16;4946112;28;20674;-85
2021/09/26 10:08:47;;;;;;;16.08;11.07;;;;;;;19.89;94.31;100984.09;4936409;28;20135;-85
2021/09/26 10:11:12;;;;;;;16.05;12.55;;;;;;;19.91;94.25;100976.50;4940721;28;20186;-84
2021/09/26 10:13:38;;;;;;;15.55;11.73;;;;;;;19.93;94.35;100993.47;4948092;28;20051;-87
2021/09/26 10:16:09;;;;;;;15.45;10.38;;;;;;;19.96;94.67;100982.13;4949662;28;20066;-85
2021/09/26 10:18:35;;;;;;;14.48;11.65;;;;;;;20.03;94.70;100989.19;4942401;28;20052;-84
2021/09/26 10:21:03;;;;;;;15.05;11.65;;;;;;;20.11;93.70;100987.25;4950807;28;20039;-85
2021/09/26 10:23:29;;;;;;;16.70;12.38;;;;;;;20.21;93.02;100990.31;4950480;28;20178;-84
2021/09/26 10:25:56;;;;;;;17.38;12.02;;;;;;;20.21;92.83;101001.22;4941588;28;20184;-86
2021/09/26 10:28:26;;;;;;;18.30;11.93;;;;;;;20.24;93.51;100993.41;4950735;28;20047;-85
2021/09/26 10:30:53;;;;;;;16.63;11.85;;;;;;;20.34;93.75;100998.38;4943464;28;20080;-84
2021/09/26 10:33:19;;;;;;;14.32;11.40;;;;;;;20.43;93.40;100998.94;4950305;28;20118;-85
2021/09/26 10:35:45;;;;;;;17.45;11.55;;;;;;;20.51;93.49;100995.88;4949380;28;20050;-88
2021/09/26 10:38:11;;;;;;;15.18;11.13;;;;;;;20.64;91.98;100997.69;4948317;28;20406;-86
2021/09/26 10:40:38;;;;;;;15.57;10.95;;;;;;;20.78;91.49;100995.66;4950790;28;20126;-85
2021/09/26 10:43:36;;;;;;;11.75;9.40;;;;;;;20.95;89.93;100992.09;4949129;28;20055;-84
2021/09/26 10:46:13;;;;;;;11.32;9.73;;;;;;;20.91;89.92;100999.03;4908774;29;20058;-85
2021/09/26 10:49:14;;;;;;;15.98;10.10;;;;;;;20.96;89.94;101006.56;4950072;28;20067;-86
2021/09/26 10:51:51;;;;;;;13.13;10.45;;;;;;;20.95;88.37;101002.19;4932952;28;20077;-87
2021/09/26 10:54:19;;;;;;;15.35;10.68;;;;;;;21.02;89.31;101007.53;4950188;28;20047;-84
2021/09/26 10:56:45;;;;;;;13.87;10.97;;;;;;;21.07;88.83;100999.50;4931394;28;20419;-86
2021/09/26 10:59:12;;;;;;;13.38;10.05;;;;;;;21.09;89.83;100998.22;4949381;28;20130;-84
2021/09/26 11:01:38;;;;;;;13.65;10.45;;;;;;;21.23;89.52;100995.31;4948967;28;20482;-85
2021/09/26 11:04:03;;;;;;;14.23;10.88;;;;;;;21.32;88.33;101013.88;4948389;28;20079;-85
2021/09/26 11:06:30;;;;;;;11.48;9.80;;;;;;;21.44;89.00;101013.13;4949801;28;20075;-85
2021/09/26 11:09:00;;;;;;;12.77;10.00;;;;;;;21.58;87.63;100998.25;4933121;29;20047;-83